createdAt,value
2023-04-02T00:00:12.257Z,73.43
2023-04-02T00:02:46.555Z,73.58
2023-04-02T00:05:21.431Z,73.93
2023-04-02T00:07:52.533Z,73.95
2023-04-02T00:10:38.539Z,74.27
2023-04-02T00:13:13.071Z,74.60
2023-04-02T00:15:43.288Z,74.27
2023-04-02T00:18:19.331Z,73.97
2023-04-02T00:21:14.219Z,73.78
2023-04-02T00:23:44.675Z,74.33
2023-04-02T00:26:22.529Z,73.87
2023-04-02T00:28:52.887Z,73.54
2023-04-02T00:31:21.948Z,74.76
2023-04-02T00:33:51.346Z,74.55
2023-04-02T00:36:23.028Z,74.90
2023-04-02T00:38:52.065Z,74.03
2023-04-02T00:41:25.610Z,74.32
2023-04-02T00:43:55.490Z,75.24
2023-04-02T00:46:47.569Z,74.79
2023-04-02T00:49:33.770Z,74.44
2023-04-02T00:52:09.253Z,74.90
2023-04-02T00:54:49.702Z,75.19
2023-04-02T00:57:27.245Z,74.04
2023-04-02T01:00:00.912Z,74.78
2023-04-02T01:02:39.126Z,75.02
2023-04-02T01:05:17.486Z,74.49
2023-04-02T01:08:01.030Z,74.18
2023-04-02T01:11:09.615Z,74.34
2023-04-02T01:13:48.155Z,73.68
2023-04-02T01:16:47.486Z,73.84
2023-04-02T01:19:37.480Z,74.21
2023-04-02T01:22:35.710Z,74.37
2023-04-02T01:25:07.306Z,74.38
2023-04-02T01:27:51.097Z,73.77
2023-04-02T01:30:21.944Z,73.49
2023-04-02T01:32:51.330Z,73.76
2023-04-02T01:35:20.467Z,73.82
2023-04-02T01:38:01.217Z,74.09
2023-04-02T01:40:40.375Z,73.55
2023-04-02T01:43:32.571Z,73.68
2023-04-02T01:46:24.360Z,73.85
2023-04-02T01:48:58.223Z,73.29
2023-04-02T01:51:33.538Z,73.20
2023-04-02T01:54:06.966Z,73.86
2023-04-02T01:56:36.662Z,73.53
2023-04-02T01:59:06.748Z,73.15
2023-04-02T02:02:08.556Z,70.93
2023-04-02T02:04:41.340Z,67.35
2023-04-02T02:07:21.380Z,64.01
2023-04-02T02:09:54.567Z,62.43
2023-04-02T02:12:23.847Z,61.43
2023-04-02T02:14:53.136Z,59.60
2023-04-02T02:17:31.870Z,57.61
2023-04-02T02:20:03.190Z,56.59
2023-04-02T02:22:36.107Z,55.24
2023-04-02T02:25:12.137Z,54.37
2023-04-02T02:28:10.145Z,53.23
2023-04-02T02:30:44.528Z,52.06
2023-04-02T02:33:26.085Z,51.43
2023-04-02T02:36:01.949Z,50.58
2023-04-02T02:38:40.081Z,50.38
2023-04-02T02:41:42.877Z,49.68
2023-04-02T02:44:17.247Z,49.24
2023-04-02T02:47:29.176Z,48.98
2023-04-02T02:50:05.478Z,48.83
2023-04-02T02:52:37.719Z,49.10
2023-04-02T02:55:25.373Z,49.05
2023-04-02T02:58:24.539Z,50.67
2023-04-02T03:01:02.433Z,50.83
2023-04-02T03:03:37.749Z,51.71
2023-04-02T03:06:11.626Z,52.40
2023-04-02T03:08:52.583Z,52.67
2023-04-02T03:11:28.389Z,53.52
2023-04-02T03:14:07.776Z,53.89
2023-04-02T03:16:45.056Z,54.43
2023-04-02T03:19:25.982Z,54.48
2023-04-02T03:22:18.612Z,54.56
2023-04-02T03:24:50.737Z,55.01
2023-04-02T03:27:31.476Z,55.34
2023-04-02T03:30:27.874Z,55.78
2023-04-02T03:33:18.585Z,55.43
2023-04-02T03:36:04.280Z,55.69
2023-04-02T03:38:44.326Z,56.10
2023-04-02T03:41:41.507Z,55.18
2023-04-02T03:44:23.537Z,56.24
2023-04-02T03:47:07.094Z,56.21
2023-04-02T03:49:39.665Z,55.72
2023-04-02T03:52:14.871Z,55.15
2023-04-02T03:54:53.108Z,55.60
2023-04-02T03:57:57.914Z,54.02
2023-04-02T04:00:44.976Z,53.23
2023-04-02T04:03:38.167Z,54.48
2023-04-02T04:06:11.690Z,54.31
2023-04-02T04:08:58.302Z,53.41
2023-04-02T04:11:32.432Z,53.89
2023-04-02T04:14:10.667Z,53.28
2023-04-02T04:16:43.557Z,53.57
2023-04-02T04:19:22.714Z,51.44
2023-04-02T04:21:58.654Z,52.61
2023-04-02T04:24:29.012Z,52.26
2023-04-02T04:27:10.093Z,51.76
2023-04-02T04:30:06.643Z,51.29
2023-04-02T04:32:50.827Z,52.15
2023-04-02T04:35:52.231Z,52.51
2023-04-02T04:38:33.477Z,52.07
2023-04-02T04:41:14.212Z,51.78
2023-04-02T04:43:46.383Z,50.95
2023-04-02T04:46:29.848Z,50.72
2023-04-02T04:49:36.402Z,51.64
2023-04-02T04:52:10.828Z,51.34
2023-04-02T04:54:40.473Z,51.58
2023-04-02T04:57:38.194Z,50.75
2023-04-02T05:00:13.747Z,51.04
2023-04-02T05:03:21.455Z,51.79
2023-04-02T05:05:51.456Z,52.27
2023-04-02T05:08:35.424Z,51.78
2023-04-02T05:11:17.039Z,51.21
2023-04-02T05:13:52.765Z,51.25
2023-04-02T05:16:32.369Z,51.18
2023-04-02T05:19:11.659Z,51.95
2023-04-02T05:22:16.103Z,51.50
2023-04-02T05:25:14.423Z,49.95
2023-04-02T05:27:49.487Z,51.50
2023-04-02T05:30:24.031Z,51.32
2023-04-02T05:33:08.752Z,51.16
2023-04-02T05:35:42.744Z,51.49
2023-04-02T05:38:22.644Z,50.28
2023-04-02T05:41:04.716Z,50.43
2023-04-02T05:43:38.049Z,49.76
2023-04-02T05:46:22.104Z,49.97
2023-04-02T05:48:59.443Z,49.27
2023-04-02T05:51:51.372Z,49.13
2023-04-02T05:54:30.179Z,49.38
2023-04-02T05:57:14.868Z,48.94
2023-04-02T06:00:09.767Z,49.40
2023-04-02T06:02:46.398Z,49.09
2023-04-02T06:05:24.722Z,48.50
2023-04-02T06:07:59.563Z,49.16
2023-04-02T06:10:48.103Z,49.06
2023-04-02T06:13:19.872Z,48.31
2023-04-02T06:15:49.307Z,48.35
2023-04-02T06:18:29.616Z,48.36
2023-04-02T06:20:58.811Z,48.16
2023-04-02T06:23:33.318Z,48.50
2023-04-02T06:26:26.160Z,47.60
2023-04-02T06:29:07.871Z,47.24
2023-04-02T06:31:36.683Z,47.13
2023-04-02T06:34:14.123Z,47.74
2023-04-02T06:36:47.058Z,47.68
2023-04-02T06:39:23.381Z,47.26
2023-04-02T06:42:16.273Z,46.90
2023-04-02T06:45:26.436Z,47.36
2023-04-02T06:48:20.510Z,47.41
2023-04-02T06:51:15.079Z,46.90
2023-04-02T06:53:49.329Z,46.83
2023-04-02T06:56:46.422Z,46.43
2023-04-02T06:59:21.485Z,46.89
2023-04-02T07:01:55.705Z,46.84
2023-04-02T07:04:25.649Z,46.08
2023-04-02T07:06:55.639Z,46.13
2023-04-02T07:09:27.535Z,46.48
2023-04-02T07:11:59.884Z,47.74
2023-04-02T07:14:28.599Z,47.37
2023-04-02T07:16:57.688Z,46.26
2023-04-02T07:19:26.844Z,46.72
2023-04-02T07:22:01.673Z,46.38
2023-04-02T07:24:36.708Z,46.50
2023-04-02T07:27:05.391Z,46.39
2023-04-02T07:29:34.197Z,46.29
2023-04-02T07:32:02.731Z,45.80
2023-04-02T07:34:31.546Z,46.12
2023-04-02T07:37:00.313Z,46.07
2023-04-02T07:39:29.447Z,46.16
2023-04-02T07:42:01.400Z,46.95
2023-04-02T07:44:30.406Z,46.83
2023-04-02T07:46:59.453Z,46.41
2023-04-02T07:49:28.286Z,46.24
2023-04-02T07:51:57.062Z,46.33
2023-04-02T07:54:25.745Z,46.50
2023-04-02T07:56:54.694Z,47.15
2023-04-02T07:59:26.116Z,46.65
2023-04-02T08:01:58.180Z,47.44
2023-04-02T08:04:27.204Z,46.62
2023-04-02T08:06:56.172Z,47.15
2023-04-02T08:09:24.949Z,46.25
2023-04-02T08:11:53.545Z,46.62
2023-04-02T08:14:22.562Z,46.29
2023-04-02T08:16:56.548Z,46.53
2023-04-02T08:19:25.685Z,46.73
2023-04-02T08:21:54.383Z,46.33
2023-04-02T08:24:23.383Z,46.08
2023-04-02T08:26:55.444Z,46.51
2023-04-02T08:29:24.511Z,47.04
2023-04-02T08:31:55.633Z,47.13
2023-04-02T08:34:24.356Z,46.55
2023-04-02T08:36:57.953Z,45.78
2023-04-02T08:39:30.112Z,46.38
2023-04-02T08:42:41.240Z,47.05
2023-04-02T08:46:02.064Z,46.81
2023-04-02T08:48:33.671Z,46.58
2023-04-02T08:51:04.065Z,46.31
2023-04-02T08:53:38.458Z,47.42
2023-04-02T08:56:32.868Z,47.44
2023-04-02T08:59:10.217Z,47.02
2023-04-02T09:02:02.555Z,46.73
2023-04-02T09:04:33.204Z,47.44
2023-04-02T09:07:02.070Z,46.99
2023-04-02T09:09:34.900Z,47.61
2023-04-02T09:12:05.341Z,47.38
2023-04-02T09:14:50.993Z,47.75
2023-04-02T09:17:24.958Z,47.78
2023-04-02T09:20:17.852Z,47.12
2023-04-02T09:22:51.397Z,47.92
2023-04-02T09:25:23.214Z,46.51
2023-04-02T09:27:55.394Z,47.26
2023-04-02T09:30:32.489Z,48.13
2023-04-02T09:33:09.922Z,47.84
2023-04-02T09:35:58.704Z,48.27
2023-04-02T09:38:33.629Z,48.67
2023-04-02T09:41:05.865Z,48.75
2023-04-02T09:43:37.687Z,49.59
2023-04-02T09:46:16.301Z,49.09
2023-04-02T09:48:46.323Z,49.63
2023-04-02T09:51:18.600Z,49.61
2023-04-02T09:54:15.962Z,49.85
2023-04-02T09:57:05.144Z,50.82
2023-04-02T09:59:34.398Z,50.67
2023-04-02T10:02:06.947Z,51.88
2023-04-02T10:04:47.952Z,51.53
2023-04-02T10:07:38.893Z,51.71
2023-04-02T10:10:42.884Z,51.18
2023-04-02T10:13:39.793Z,51.70
2023-04-02T10:16:20.962Z,52.60
2023-04-02T10:18:59.434Z,52.49
2023-04-02T10:21:36.702Z,52.28
2023-04-02T10:24:28.249Z,52.75
2023-04-02T10:27:23.373Z,52.61
2023-04-02T10:29:56.098Z,52.58
2023-04-02T10:32:38.358Z,53.46
2023-04-02T10:35:10.042Z,51.93
2023-04-02T10:37:50.007Z,52.95
2023-04-02T10:40:27.623Z,52.29
2023-04-02T10:43:10.176Z,52.74
2023-04-02T10:46:02.443Z,53.20
2023-04-02T10:48:36.952Z,53.12
2023-04-02T10:51:15.658Z,53.06
2023-04-02T10:54:24.953Z,53.12
2023-04-02T10:56:55.926Z,53.77
2023-04-02T10:59:34.647Z,53.98
2023-04-02T11:02:11.926Z,53.71
2023-04-02T11:04:47.118Z,53.92
2023-04-02T11:07:23.298Z,54.56
2023-04-02T11:09:55.817Z,54.39
2023-04-02T11:12:46.960Z,55.19
2023-04-02T11:15:20.100Z,54.66
2023-04-02T11:17:49.709Z,54.51
2023-04-02T11:20:49.495Z,55.18
2023-04-02T11:23:21.922Z,54.97
2023-04-02T11:25:50.927Z,55.21
2023-04-02T11:28:33.007Z,55.84
2023-04-02T11:31:02.774Z,55.27
2023-04-02T11:33:44.063Z,55.83
2023-04-02T11:36:51.106Z,55.74
2023-04-02T11:39:54.312Z,55.51
2023-04-02T11:42:27.058Z,55.50
2023-04-02T11:44:57.333Z,55.10
2023-04-02T11:47:28.574Z,55.29
2023-04-02T11:50:02.175Z,55.40
2023-04-02T11:52:38.794Z,55.65
2023-04-02T11:55:31.442Z,56.08
2023-04-02T11:58:18.470Z,56.43
2023-04-02T12:01:12.951Z,56.40
2023-04-02T12:04:06.451Z,55.46
2023-04-02T12:06:53.932Z,55.89
2023-04-02T12:09:37.680Z,56.43
2023-04-02T12:12:32.600Z,56.14
2023-04-02T12:15:02.013Z,56.55
2023-04-02T12:17:41.103Z,56.98
2023-04-02T12:20:10.407Z,57.02
2023-04-02T12:22:41.497Z,57.15
2023-04-02T12:25:25.487Z,57.44
2023-04-02T12:28:12.033Z,57.06
2023-04-02T12:30:45.368Z,56.77
2023-04-02T12:33:39.334Z,57.01
2023-04-02T12:36:24.619Z,57.92
2023-04-02T12:38:54.602Z,57.80
2023-04-02T12:41:31.050Z,57.67
2023-04-02T12:44:01.071Z,58.01
2023-04-02T12:46:31.877Z,58.50
2023-04-02T12:49:10.902Z,59.29
2023-04-02T12:51:40.203Z,58.75
2023-04-02T12:54:16.274Z,59.41
2023-04-02T12:56:45.811Z,59.65
2023-04-02T12:59:44.648Z,59.53
2023-04-02T13:02:29.508Z,60.11
2023-04-02T13:05:03.160Z,60.04
2023-04-02T13:07:34.691Z,60.12
2023-04-02T13:10:26.975Z,60.38
2023-04-02T13:13:04.214Z,60.74
2023-04-02T13:15:37.204Z,60.99
2023-04-02T13:18:22.184Z,61.34
2023-04-02T13:20:59.714Z,61.13
2023-04-02T13:23:31.169Z,61.84
2023-04-02T13:26:03.721Z,61.77
2023-04-02T13:28:32.949Z,61.75
2023-04-02T13:31:02.085Z,62.08
2023-04-02T13:33:33.027Z,62.16
2023-04-02T13:36:02.359Z,62.82
2023-04-02T13:38:31.146Z,62.97
2023-04-02T13:40:59.896Z,62.91
2023-04-02T13:43:28.925Z,63.61
2023-04-02T13:46:00.808Z,64.00
2023-04-02T13:48:29.572Z,64.02
2023-04-02T13:50:58.332Z,64.32
2023-04-02T13:53:34.126Z,64.55
2023-04-02T13:56:03.461Z,64.91
2023-04-02T13:58:32.236Z,65.17
2023-04-02T14:01:02.364Z,65.35
2023-04-02T14:03:31.773Z,65.20
2023-04-02T14:06:04.257Z,65.37
2023-04-02T14:08:53.910Z,65.50
2023-04-02T14:11:28.567Z,65.85
2023-04-02T14:14:14.107Z,65.87
2023-04-02T14:16:58.260Z,65.80
2023-04-02T14:19:32.799Z,66.26
2023-04-02T14:22:17.855Z,66.71
2023-04-02T14:25:11.703Z,66.18
2023-04-02T14:28:07.794Z,66.79
2023-04-02T14:31:04.137Z,67.20
2023-04-02T14:33:41.182Z,67.17
2023-04-02T14:36:17.780Z,67.43
2023-04-02T14:38:58.946Z,67.13
2023-04-02T14:42:19.120Z,66.66
2023-04-02T14:45:03.297Z,66.59
2023-04-02T14:47:48.944Z,66.84
2023-04-02T14:50:28.732Z,66.79
2023-04-02T14:53:04.917Z,67.55
2023-04-02T14:55:47.525Z,67.13
2023-04-02T14:58:34.231Z,67.86
2023-04-02T15:01:14.490Z,67.62
2023-04-02T15:04:21.753Z,67.58
2023-04-02T15:06:54.772Z,67.88
2023-04-02T15:09:33.031Z,67.96
2023-04-02T15:12:10.172Z,67.79
2023-04-02T15:14:45.140Z,67.79
2023-04-02T15:17:14.137Z,68.07
2023-04-02T15:19:42.856Z,68.75
2023-04-02T15:22:29.658Z,68.69
2023-04-02T15:25:14.088Z,68.97
2023-04-02T15:27:45.620Z,68.98
2023-04-02T15:30:21.514Z,69.48
2023-04-02T15:32:51.341Z,69.26
2023-04-02T15:35:53.248Z,69.43
2023-04-02T15:38:27.880Z,69.71
2023-04-02T15:41:16.414Z,69.84
2023-04-02T15:44:03.935Z,69.77
2023-04-02T15:47:09.994Z,69.61
2023-04-02T15:49:43.627Z,69.13
2023-04-02T15:52:50.030Z,69.69
2023-04-02T15:55:47.808Z,69.33
2023-04-02T15:58:41.818Z,68.90
2023-04-02T16:01:29.446Z,69.22
2023-04-02T16:04:18.904Z,68.65
2023-04-02T16:07:15.689Z,69.26
2023-04-02T16:10:40.328Z,69.85
2023-04-02T16:13:16.885Z,69.04
2023-04-02T16:15:59.609Z,69.18
2023-04-02T16:18:39.908Z,69.32
2023-04-02T16:21:11.631Z,68.76
2023-04-02T16:23:41.571Z,68.95
2023-04-02T16:26:32.560Z,68.48
2023-04-02T16:29:47.096Z,69.03
2023-04-02T16:32:37.269Z,68.91
2023-04-02T16:35:47.753Z,69.62
2023-04-02T16:38:44.874Z,69.43
2023-04-02T16:41:48.835Z,68.99
2023-04-02T16:44:45.642Z,68.83
2023-04-02T16:47:14.772Z,68.91
2023-04-02T16:49:43.639Z,69.33
2023-04-02T16:52:33.553Z,69.39
2023-04-02T16:55:11.104Z,69.52
2023-04-02T16:57:55.549Z,68.95
2023-04-02T17:00:51.333Z,69.57
2023-04-02T17:03:41.744Z,69.75
2023-04-02T17:06:17.219Z,69.32
2023-04-02T17:08:55.032Z,69.60
2023-04-02T17:11:41.419Z,69.59
2023-04-02T17:14:58.231Z,69.90
2023-04-02T17:17:59.797Z,69.77
2023-04-02T17:20:29.844Z,69.49
2023-04-02T17:22:59.256Z,69.60
2023-04-02T17:25:34.892Z,70.20
2023-04-02T17:28:06.858Z,69.85
2023-04-02T17:31:06.737Z,69.68
2023-04-02T17:33:35.389Z,70.47
2023-04-02T17:36:33.654Z,69.73
2023-04-02T17:39:29.235Z,70.25
2023-04-02T17:42:17.976Z,70.30
2023-04-02T17:44:55.832Z,70.02
2023-04-02T17:47:32.055Z,70.13
2023-04-02T17:50:12.260Z,70.34
2023-04-02T17:52:47.172Z,69.93
2023-04-02T17:55:20.950Z,69.65
2023-04-02T17:58:10.260Z,70.01
2023-04-02T18:00:58.676Z,69.76
2023-04-02T18:03:42.482Z,70.03
2023-04-02T18:06:19.712Z,70.50
2023-04-02T18:09:06.553Z,70.24
2023-04-02T18:11:44.195Z,70.16
2023-04-02T18:14:30.396Z,69.80
2023-04-02T18:17:24.013Z,70.81
2023-04-02T18:20:21.075Z,70.02
2023-04-02T18:23:17.596Z,69.88
2023-04-02T18:26:07.471Z,70.50
2023-04-02T18:29:06.524Z,70.22
2023-04-02T18:31:53.671Z,69.72
2023-04-02T18:34:41.213Z,70.26
2023-04-02T18:37:24.394Z,70.22
2023-04-02T18:40:27.234Z,70.38
2023-04-02T18:43:22.012Z,69.96
2023-04-02T18:46:15.324Z,70.75
2023-04-02T18:48:51.248Z,70.55
2023-04-02T18:51:26.751Z,71.07
2023-04-02T18:54:23.511Z,70.87
2023-04-02T18:56:52.531Z,70.42
2023-04-02T18:59:43.808Z,70.44
2023-04-02T19:02:44.203Z,70.38
2023-04-02T19:05:36.044Z,70.62
2023-04-02T19:08:34.539Z,70.67
2023-04-02T19:11:10.409Z,70.50
2023-04-02T19:13:39.810Z,70.50
2023-04-02T19:16:11.515Z,70.77
2023-04-02T19:19:21.877Z,70.38
2023-04-02T19:22:09.689Z,70.94
2023-04-02T19:24:55.756Z,71.10
2023-04-02T19:27:43.131Z,71.22
2023-04-02T19:30:23.729Z,71.55
2023-04-02T19:33:00.902Z,71.39
2023-04-02T19:36:09.591Z,71.54
2023-04-02T19:39:10.150Z,71.06
2023-04-02T19:42:09.107Z,71.69
2023-04-02T19:44:44.438Z,71.83
2023-04-02T19:47:14.847Z,71.61
2023-04-02T19:49:43.773Z,71.97
2023-04-02T19:52:12.748Z,72.31
2023-04-02T19:54:41.669Z,72.05
2023-04-02T19:57:15.363Z,72.35
2023-04-02T19:59:43.962Z,72.17
2023-04-02T20:02:12.806Z,72.65
2023-04-02T20:04:41.716Z,72.51
2023-04-02T20:07:10.455Z,72.77
2023-04-02T20:09:39.292Z,72.42
2023-04-02T20:12:09.089Z,72.93
2023-04-02T20:14:40.674Z,73.00
2023-04-02T20:17:10.150Z,72.82
2023-04-02T20:19:39.040Z,72.55
2023-04-02T20:22:08.033Z,73.41
2023-04-02T20:24:37.283Z,73.26
2023-04-02T20:27:06.756Z,73.25
2023-04-02T20:29:38.168Z,73.18
2023-04-02T20:32:07.033Z,73.47
2023-04-02T20:34:36.684Z,73.39
2023-04-02T20:37:05.639Z,73.77
2023-04-02T20:39:34.319Z,73.69
2023-04-02T20:42:04.414Z,73.71
2023-04-02T20:44:33.801Z,73.96
2023-04-02T20:47:02.773Z,73.82
2023-04-02T20:49:31.596Z,73.94
2023-04-02T20:52:00.398Z,73.94
2023-04-02T20:54:29.365Z,74.07
2023-04-02T20:56:58.282Z,74.36
2023-04-02T20:59:27.078Z,74.01
2023-04-02T21:01:56.291Z,74.28
2023-04-02T21:04:25.398Z,74.20
2023-04-02T21:06:57.743Z,74.10
2023-04-02T21:09:26.463Z,73.79
2023-04-02T21:11:55.465Z,73.54
2023-04-02T21:14:24.888Z,73.70
2023-04-02T21:16:53.839Z,73.29
2023-04-02T21:19:22.780Z,73.61
2023-04-02T21:21:51.678Z,73.46
2023-04-02T21:24:20.583Z,73.52
2023-04-02T21:26:49.554Z,73.35
2023-04-02T21:29:19.297Z,73.07
2023-04-02T21:31:48.111Z,73.48
2023-04-02T21:34:17.977Z,73.54
2023-04-02T21:36:49.154Z,73.52
2023-04-02T21:39:23.507Z,72.96
2023-04-02T21:41:54.321Z,73.20
2023-04-02T21:44:25.136Z,72.83
2023-04-02T21:46:54.415Z,73.19
2023-04-02T21:49:24.289Z,72.83
2023-04-02T21:51:55.650Z,73.58
2023-04-02T21:54:25.071Z,73.14
2023-04-02T21:56:55.023Z,73.40
2023-04-02T21:59:24.306Z,73.05
2023-04-02T22:01:53.517Z,73.29
2023-04-02T22:04:25.305Z,72.71
2023-04-02T22:06:54.757Z,72.62
2023-04-02T22:09:27.332Z,73.22
2023-04-02T22:12:02.431Z,73.25
2023-04-02T22:14:31.517Z,73.18
2023-04-02T22:17:00.549Z,72.93
2023-04-02T22:19:29.672Z,72.80
2023-04-02T22:21:58.411Z,72.71
2023-04-02T22:24:27.801Z,72.63
2023-04-02T22:26:56.694Z,73.08
2023-04-02T22:29:25.529Z,72.61
2023-04-02T22:31:54.189Z,72.35
2023-04-02T22:34:23.095Z,72.85
2023-04-02T22:36:53.796Z,72.13
2023-04-02T22:39:22.407Z,72.73
2023-04-02T22:41:50.994Z,72.53
2023-04-02T22:44:19.660Z,72.26
2023-04-02T22:46:48.711Z,72.27
2023-04-02T22:49:19.789Z,72.20
2023-04-02T22:51:49.184Z,72.62
2023-04-02T22:54:17.960Z,72.16
2023-04-02T22:56:46.778Z,72.34
2023-04-02T22:59:15.591Z,72.76
2023-04-02T23:01:44.999Z,72.19
2023-04-02T23:04:13.684Z,72.14
2023-04-02T23:06:42.424Z,72.82
2023-04-02T23:09:11.762Z,72.59
2023-04-02T23:11:40.496Z,72.66
2023-04-02T23:14:09.220Z,72.48
2023-04-02T23:16:37.944Z,72.67
2023-04-02T23:19:06.854Z,72.08
2023-04-02T23:21:36.533Z,72.53
2023-04-02T23:24:05.738Z,72.42
2023-04-02T23:26:34.151Z,71.96
2023-04-02T23:29:03.609Z,72.51
2023-04-02T23:31:32.548Z,72.69
2023-04-02T23:34:01.319Z,72.14
2023-04-02T23:36:32.559Z,72.38
2023-04-02T23:39:10.066Z,71.86
2023-04-02T23:41:42.127Z,71.95
2023-04-02T23:44:11.033Z,72.36
2023-04-02T23:46:39.796Z,72.11
2023-04-02T23:49:10.748Z,72.46
2023-04-02T23:51:40.036Z,71.84
2023-04-02T23:54:08.659Z,72.52
2023-04-02T23:56:37.352Z,71.64
2023-04-02T23:59:06.361Z,71.98
